createdAt,value
2022-09-12T00:00:51.537Z,7.68
2022-09-12T00:03:18.165Z,7.47
2022-09-12T00:05:46.747Z,6.10
2022-09-12T00:08:13.933Z,6.00
2022-09-12T00:10:42.235Z,6.63
2022-09-12T00:13:09.023Z,6.10
2022-09-12T00:15:43.331Z,5.70
2022-09-12T00:18:13.888Z,6.28
2022-09-12T00:20:44.853Z,5.82
2022-09-12T00:23:12.392Z,5.78
2022-09-12T00:25:43.598Z,6.22
2022-09-12T00:28:10.861Z,5.78
2022-09-12T00:30:44.459Z,5.15
2022-09-12T00:33:11.759Z,5.30
2022-09-12T00:35:46.544Z,6.20
2022-09-12T00:38:14.183Z,5.47
2022-09-12T00:40:41.637Z,5.93
2022-09-12T00:43:30.078Z,6.65
2022-09-12T00:45:57.794Z,5.28
2022-09-12T00:48:31.030Z,6.18
2022-09-12T00:50:58.240Z,5.53
2022-09-12T00:53:25.630Z,6.40
2022-09-12T00:55:53.283Z,5.75
2022-09-12T00:58:23.798Z,6.65
2022-09-12T01:00:50.454Z,5.00
2022-09-12T01:03:19.795Z,5.32
2022-09-12T01:05:56.559Z,5.38
2022-09-12T01:08:23.474Z,4.78
2022-09-12T01:10:50.103Z,5.28
2022-09-12T01:13:16.640Z,5.78
2022-09-12T01:15:43.181Z,5.57
2022-09-12T01:18:42.679Z,6.38
2022-09-12T01:21:11.677Z,5.80
2022-09-12T01:24:01.899Z,4.30
2022-09-12T01:26:40.498Z,5.07
2022-09-12T01:29:31.816Z,6.82
2022-09-12T01:32:04.571Z,5.40
2022-09-12T01:34:37.260Z,4.50
2022-09-12T01:37:14.733Z,5.60
2022-09-12T01:40:28.908Z,4.88
2022-09-12T01:43:03.579Z,4.55
2022-09-12T01:45:34.152Z,4.75
2022-09-12T01:48:17.198Z,5.20
2022-09-12T01:51:26.657Z,5.38
2022-09-12T01:54:03.962Z,4.80
2022-09-12T01:56:33.439Z,4.22
2022-09-12T01:59:08.690Z,4.65
2022-09-12T02:01:38.544Z,6.25
2022-09-12T02:04:16.220Z,5.32
2022-09-12T02:06:52.726Z,5.57
2022-09-12T02:09:26.310Z,5.45
2022-09-12T02:11:58.285Z,5.53
2022-09-12T02:14:38.231Z,4.85
2022-09-12T02:17:12.131Z,4.93
2022-09-12T02:19:46.184Z,4.03
2022-09-12T02:22:16.187Z,5.45
2022-09-12T02:24:46.871Z,5.70
2022-09-12T02:27:40.363Z,5.78
2022-09-12T02:30:08.820Z,4.90
2022-09-12T02:32:48.377Z,4.78
2022-09-12T02:35:31.181Z,6.70
2022-09-12T02:38:15.063Z,6.50
2022-09-12T02:40:41.964Z,5.25
2022-09-12T02:43:08.608Z,5.20
2022-09-12T02:45:35.763Z,5.57
2022-09-12T02:48:15.355Z,4.88
2022-09-12T02:50:42.174Z,4.10
2022-09-12T02:53:09.519Z,4.68
2022-09-12T02:55:36.949Z,4.22
2022-09-12T02:58:05.657Z,3.95
2022-09-12T03:00:38.157Z,4.30
2022-09-12T03:03:07.556Z,4.60
2022-09-12T03:05:54.523Z,3.65
2022-09-12T03:08:51.751Z,4.38
2022-09-12T03:11:31.497Z,4.75
2022-09-12T03:14:11.140Z,4.10
2022-09-12T03:16:59.453Z,4.53
2022-09-12T03:19:59.170Z,4.78
2022-09-12T03:22:28.668Z,4.25
2022-09-12T03:24:58.538Z,4.65
2022-09-12T03:27:57.257Z,4.13
2022-09-12T03:30:23.798Z,4.88
2022-09-12T03:32:53.792Z,5.10
2022-09-12T03:35:23.253Z,4.63
2022-09-12T03:37:51.386Z,4.00
2022-09-12T03:40:18.342Z,4.60
2022-09-12T03:42:44.911Z,4.18
2022-09-12T03:45:11.628Z,4.63
2022-09-12T03:47:38.212Z,4.43
2022-09-12T03:50:05.141Z,4.75
2022-09-12T03:52:31.783Z,4.20
2022-09-12T03:54:58.320Z,4.35
2022-09-12T03:57:24.993Z,4.10
2022-09-12T03:59:51.541Z,4.47
2022-09-12T04:02:18.173Z,4.10
2022-09-12T04:04:46.254Z,4.20
2022-09-12T04:07:12.824Z,3.83
2022-09-12T04:09:39.371Z,3.78
2022-09-12T04:12:06.388Z,3.60
2022-09-12T04:14:32.902Z,4.30
2022-09-12T04:16:59.701Z,3.70
2022-09-12T04:19:26.871Z,3.67
2022-09-12T04:21:53.732Z,4.38
2022-09-12T04:24:20.263Z,3.53
2022-09-12T04:26:46.834Z,4.05
2022-09-12T04:29:14.996Z,4.47
2022-09-12T04:31:41.897Z,6.00
2022-09-12T04:34:08.766Z,3.90
2022-09-12T04:36:35.707Z,4.70
2022-09-12T04:39:03.438Z,4.15
2022-09-12T04:41:32.369Z,4.25
2022-09-12T04:44:07.580Z,3.50
2022-09-12T04:46:36.580Z,3.67
2022-09-12T04:49:03.512Z,3.83
2022-09-12T04:51:33.779Z,4.07
2022-09-12T04:54:02.837Z,4.05
2022-09-12T04:56:29.940Z,4.63
2022-09-12T04:58:58.243Z,4.80
2022-09-12T05:01:24.983Z,4.55
2022-09-12T05:03:52.890Z,4.85
2022-09-12T05:06:21.847Z,3.90
2022-09-12T05:08:48.521Z,5.15
2022-09-12T05:11:21.512Z,4.53
2022-09-12T05:13:50.794Z,3.60
2022-09-12T05:16:18.557Z,3.50
2022-09-12T05:18:45.868Z,3.60
2022-09-12T05:21:14.031Z,3.63
2022-09-12T05:23:40.763Z,4.07
2022-09-12T05:26:07.780Z,4.05
2022-09-12T05:28:36.676Z,4.15
2022-09-12T05:31:17.933Z,4.70
2022-09-12T05:33:46.617Z,3.42
2022-09-12T05:36:31.672Z,4.05
2022-09-12T05:39:00.010Z,3.70
2022-09-12T05:41:30.765Z,4.22
2022-09-12T05:43:59.504Z,3.33
2022-09-12T05:46:30.952Z,3.30
2022-09-12T05:48:58.439Z,3.30
2022-09-12T05:51:29.000Z,3.40
2022-09-12T05:53:57.405Z,3.50
2022-09-12T05:56:28.861Z,3.03
2022-09-12T05:59:03.476Z,3.45
2022-09-12T06:01:31.192Z,3.08
2022-09-12T06:04:00.940Z,3.10
2022-09-12T06:06:28.758Z,3.20
2022-09-12T06:09:01.109Z,3.20
2022-09-12T06:11:30.272Z,3.47
2022-09-12T06:13:58.107Z,4.13
2022-09-12T06:16:27.177Z,3.38
2022-09-12T06:18:58.520Z,3.97
2022-09-12T06:23:54.141Z,4.28
2022-09-12T06:26:25.670Z,3.78
2022-09-12T06:28:54.013Z,4.00
2022-09-12T06:31:22.663Z,3.60
2022-09-12T06:33:51.821Z,3.50
2022-09-12T06:36:24.708Z,4.05
2022-09-12T06:38:57.132Z,3.70
2022-09-12T06:41:24.577Z,3.50
2022-09-12T06:43:51.168Z,3.30
2022-09-12T06:46:17.795Z,3.78
2022-09-12T06:48:44.716Z,3.55
2022-09-12T06:51:14.743Z,3.42
2022-09-12T06:53:42.279Z,3.50
2022-09-12T06:56:13.544Z,4.30
2022-09-12T06:58:40.725Z,3.75
2022-09-12T07:01:08.659Z,3.65
2022-09-12T07:03:36.015Z,4.50
2022-09-12T07:06:07.859Z,4.22
2022-09-12T07:08:36.839Z,4.45
2022-09-12T07:11:24.140Z,3.90
2022-09-12T07:13:56.236Z,3.85
2022-09-12T07:16:23.676Z,4.28
2022-09-12T07:18:51.895Z,3.63
2022-09-12T07:21:18.894Z,4.03
2022-09-12T07:23:45.717Z,4.38
2022-09-12T07:26:13.668Z,4.03
2022-09-12T07:28:40.594Z,3.85
2022-09-12T07:31:12.831Z,4.63
2022-09-12T07:33:40.119Z,5.57
2022-09-12T07:36:18.669Z,4.75
2022-09-12T07:38:46.511Z,5.82
2022-09-12T07:41:20.939Z,6.13
2022-09-12T07:43:48.348Z,5.05
2022-09-12T07:46:15.036Z,6.40
2022-09-12T07:48:41.606Z,6.28
2022-09-12T07:51:10.120Z,6.15
2022-09-12T07:53:41.616Z,7.10
2022-09-12T07:56:10.346Z,6.47
2022-09-12T07:58:38.394Z,6.15
2022-09-12T08:01:08.802Z,6.28
2022-09-12T08:03:42.436Z,6.13
2022-09-12T08:06:10.417Z,6.15
2022-09-12T08:08:37.281Z,6.70
2022-09-12T08:11:09.841Z,6.20
2022-09-12T08:13:38.192Z,6.20
2022-09-12T08:16:07.183Z,5.88
2022-09-12T08:18:36.363Z,6.05
2022-09-12T08:21:09.959Z,6.30
2022-09-12T08:23:36.480Z,5.47
2022-09-12T08:26:06.368Z,5.90
2022-09-12T08:28:34.905Z,6.40
2022-09-12T08:31:02.712Z,6.22
2022-09-12T08:33:33.590Z,5.50
2022-09-12T08:36:21.083Z,6.57
2022-09-12T08:38:49.751Z,5.53
2022-09-12T08:41:28.045Z,6.00
2022-09-12T08:44:22.457Z,6.53
2022-09-12T08:46:57.987Z,6.78
2022-09-12T08:49:34.408Z,6.10
2022-09-12T08:52:07.484Z,5.93
2022-09-12T08:54:34.253Z,5.22
2022-09-12T08:57:05.695Z,6.13
2022-09-12T08:59:37.630Z,5.68
2022-09-12T09:02:06.523Z,6.28
2022-09-12T09:04:45.267Z,5.50
2022-09-12T09:07:17.667Z,4.88
2022-09-12T09:10:07.931Z,5.00
2022-09-12T09:13:00.895Z,5.05
2022-09-12T09:15:50.572Z,4.93
2022-09-12T09:18:23.971Z,5.28
2022-09-12T09:20:58.233Z,4.90
2022-09-12T09:23:46.891Z,4.93
2022-09-12T09:26:16.989Z,4.80
2022-09-12T09:28:51.712Z,4.47
2022-09-12T09:31:21.343Z,4.93
2022-09-12T09:33:51.037Z,4.47
2022-09-12T09:36:34.829Z,5.07
2022-09-12T09:39:06.662Z,4.63
2022-09-12T09:42:01.018Z,5.07
2022-09-12T09:44:28.818Z,5.70
2022-09-12T09:46:56.108Z,5.60
2022-09-12T09:49:23.032Z,4.38
2022-09-12T09:51:49.543Z,5.05
2022-09-12T09:54:23.969Z,5.72
2022-09-12T09:56:50.639Z,5.00
2022-09-12T09:59:28.796Z,4.55
2022-09-12T10:01:58.181Z,5.22
2022-09-12T10:04:27.954Z,5.10
2022-09-12T10:06:57.067Z,5.75
2022-09-12T10:09:28.801Z,4.28
2022-09-12T10:11:56.895Z,4.95
2022-09-12T10:14:41.174Z,4.60
2022-09-12T10:17:34.490Z,4.80
2022-09-12T10:22:48.607Z,3.63
2022-09-12T10:25:17.008Z,3.40
2022-09-12T10:27:43.517Z,3.78
2022-09-12T10:30:18.759Z,2.92
2022-09-12T10:32:48.761Z,3.70
2022-09-12T10:35:23.732Z,3.58
2022-09-12T10:38:07.077Z,3.00
2022-09-12T10:40:43.158Z,4.38
2022-09-12T10:43:27.993Z,5.20
2022-09-12T10:46:17.493Z,4.20
2022-09-12T10:48:48.605Z,4.07
2022-09-12T10:51:24.336Z,4.63
2022-09-12T10:53:52.534Z,4.80
2022-09-12T10:56:18.973Z,4.22
2022-09-12T10:58:55.220Z,3.22
2022-09-12T11:01:41.574Z,3.17
2022-09-12T11:04:08.089Z,3.63
2022-09-12T11:06:50.060Z,3.38
2022-09-12T11:09:28.729Z,3.22
2022-09-12T11:12:01.260Z,3.30
2022-09-12T11:14:46.043Z,3.10
2022-09-12T11:17:31.175Z,3.42
2022-09-12T11:20:29.997Z,3.97
2022-09-12T11:23:26.152Z,3.03
2022-09-12T11:26:11.508Z,4.55
2022-09-12T11:29:16.887Z,4.95
2022-09-12T11:32:14.060Z,3.30
2022-09-12T11:34:59.759Z,2.92
2022-09-12T11:37:47.841Z,3.53
2022-09-12T11:40:31.773Z,3.45
2022-09-12T11:43:03.800Z,3.45
2022-09-12T11:45:36.733Z,3.40
2022-09-12T11:48:07.822Z,2.67
2022-09-12T11:50:34.455Z,2.50
2022-09-12T11:53:19.071Z,2.40
2022-09-12T11:56:07.116Z,2.30
2022-09-12T11:58:33.693Z,2.30
2022-09-12T12:01:10.563Z,2.50
2022-09-12T12:03:37.117Z,2.47
2022-09-12T12:06:07.560Z,2.15
2022-09-12T12:08:42.634Z,2.33
2022-09-12T12:11:10.458Z,2.58
2022-09-12T12:13:46.224Z,2.60
2022-09-12T12:16:25.135Z,2.03
2022-09-12T12:18:56.649Z,2.28
2022-09-12T12:21:32.168Z,2.42
2022-09-12T12:24:10.513Z,1.92
2022-09-12T12:26:40.437Z,2.30
2022-09-12T12:29:17.156Z,2.10
2022-09-12T12:32:05.743Z,2.22
2022-09-12T12:34:39.531Z,2.75
2022-09-12T12:37:29.728Z,2.38
2022-09-12T12:40:01.294Z,2.13
2022-09-12T12:42:36.863Z,1.70
2022-09-12T12:45:29.184Z,2.13
2022-09-12T12:47:58.015Z,2.20
2022-09-12T12:50:29.329Z,2.40
2022-09-12T12:53:17.016Z,2.03
2022-09-12T12:55:43.474Z,2.40
2022-09-12T12:58:30.536Z,2.15
2022-09-12T13:01:09.657Z,1.90
2022-09-12T13:03:36.790Z,2.20
2022-09-12T13:06:07.279Z,1.67
2022-09-12T13:11:12.192Z,1.73
2022-09-12T13:13:41.795Z,1.80
2022-09-12T13:16:12.546Z,1.95
2022-09-12T13:18:48.690Z,2.35
2022-09-12T13:21:16.302Z,2.20
2022-09-12T13:23:43.605Z,1.67
2022-09-12T13:26:21.505Z,2.15
2022-09-12T13:28:48.691Z,2.20
2022-09-12T13:31:24.166Z,1.92
2022-09-12T13:33:58.497Z,1.95
2022-09-12T13:36:58.939Z,1.83
2022-09-12T13:39:46.482Z,2.08
2022-09-12T13:42:26.089Z,1.80
2022-09-12T13:44:58.954Z,1.65
2022-09-12T13:47:30.917Z,1.73
2022-09-12T13:49:57.807Z,1.80
2022-09-12T13:52:27.208Z,1.52
2022-09-12T13:54:56.121Z,1.70
2022-09-12T13:57:37.714Z,1.70
2022-09-12T14:00:24.585Z,1.40
2022-09-12T14:03:11.085Z,1.55
2022-09-12T14:05:39.476Z,1.80
2022-09-12T14:08:08.382Z,1.83
2022-09-12T14:10:36.860Z,1.73
2022-09-12T14:13:11.949Z,2.00
2022-09-12T14:15:38.767Z,1.52
2022-09-12T14:18:07.022Z,1.58
2022-09-12T14:20:37.217Z,1.85
2022-09-12T14:23:23.765Z,2.77
2022-09-12T14:25:50.452Z,1.30
2022-09-12T14:28:23.551Z,1.33
2022-09-12T14:31:02.446Z,1.73
2022-09-12T14:33:32.684Z,1.77
2022-09-12T14:36:19.768Z,1.53
2022-09-12T14:38:50.257Z,1.77
2022-09-12T14:41:24.977Z,1.65
2022-09-12T14:43:56.096Z,1.10
2022-09-12T14:49:35.044Z,1.63
2022-09-12T14:52:04.080Z,1.33
2022-09-12T14:54:30.532Z,1.45
2022-09-12T14:56:59.149Z,1.30
2022-09-12T14:59:28.761Z,1.60
2022-09-12T15:02:13.480Z,1.40
2022-09-12T15:04:45.313Z,1.65
2022-09-12T15:07:29.213Z,1.38
2022-09-12T15:09:56.054Z,1.30
2022-09-12T15:12:22.939Z,1.38
2022-09-12T15:14:49.479Z,1.52
2022-09-12T15:17:15.993Z,1.75
2022-09-12T15:19:42.653Z,1.40
2022-09-12T15:22:15.126Z,1.55
2022-09-12T15:24:41.635Z,1.60
2022-09-12T15:27:12.137Z,1.20
2022-09-12T15:29:39.221Z,1.48
2022-09-12T15:32:06.840Z,2.20
2022-09-12T15:34:33.488Z,1.60
2022-09-12T15:37:00.004Z,1.30
2022-09-12T15:39:27.560Z,1.30
2022-09-12T15:41:54.105Z,1.60
2022-09-12T15:44:20.945Z,1.65
2022-09-12T15:46:47.536Z,1.30
2022-09-12T15:49:14.147Z,1.63
2022-09-12T15:51:40.640Z,1.55
2022-09-12T15:54:07.226Z,1.63
2022-09-12T15:56:33.858Z,1.70
2022-09-12T15:59:00.549Z,1.92
2022-09-12T16:01:28.565Z,1.73
2022-09-12T16:03:55.542Z,1.83
2022-09-12T16:06:22.565Z,1.75
2022-09-12T16:08:49.556Z,1.90
2022-09-12T16:11:27.284Z,1.95
2022-09-12T16:13:55.437Z,1.85
2022-09-12T16:16:22.086Z,2.03
2022-09-12T16:18:48.818Z,1.83
2022-09-12T16:21:15.946Z,1.55
2022-09-12T16:23:46.951Z,1.83
2022-09-12T16:26:13.551Z,1.90
2022-09-12T16:28:40.398Z,2.15
2022-09-12T16:31:08.132Z,1.75
2022-09-12T16:33:35.031Z,2.28
2022-09-12T16:36:06.933Z,2.20
2022-09-12T16:38:34.693Z,2.00
2022-09-12T16:41:05.231Z,2.08
2022-09-12T16:43:32.863Z,2.13
2022-09-12T16:46:02.865Z,1.70
2022-09-12T16:48:30.276Z,2.25
2022-09-12T16:50:58.540Z,1.92
2022-09-12T16:53:25.235Z,2.25
2022-09-12T16:55:51.723Z,1.90
2022-09-12T16:58:18.239Z,2.17
2022-09-12T17:00:44.722Z,1.80
2022-09-12T17:03:11.313Z,2.10
2022-09-12T17:05:37.971Z,2.17
2022-09-12T17:08:04.702Z,2.13
2022-09-12T17:10:32.631Z,2.17
2022-09-12T17:12:59.288Z,1.83
2022-09-12T17:15:26.017Z,1.83
2022-09-12T17:17:52.631Z,2.40
2022-09-12T17:20:19.221Z,2.10
2022-09-12T17:22:45.741Z,1.85
2022-09-12T17:25:12.237Z,1.92
2022-09-12T17:27:38.747Z,1.80
2022-09-12T17:30:05.845Z,2.35
2022-09-12T17:32:32.409Z,2.05
2022-09-12T17:34:59.213Z,2.17
2022-09-12T17:37:25.854Z,2.38
2022-09-12T17:39:52.387Z,2.42
2022-09-12T17:42:20.153Z,1.90
2022-09-12T17:44:46.648Z,2.33
2022-09-12T17:47:13.143Z,1.83
2022-09-12T17:49:40.288Z,2.33
2022-09-12T17:52:06.785Z,2.40
2022-09-12T17:54:33.312Z,2.33
2022-09-12T17:56:59.815Z,2.60
2022-09-12T17:59:26.468Z,1.92
2022-09-12T18:02:11.561Z,2.60
2022-09-12T18:04:38.787Z,2.47
2022-09-12T18:07:05.967Z,2.50
2022-09-12T18:09:32.722Z,2.67
2022-09-12T18:11:59.425Z,2.03
2022-09-12T18:14:28.935Z,2.20
2022-09-12T18:16:57.172Z,2.40
2022-09-12T18:19:24.520Z,2.00
2022-09-12T18:21:51.072Z,2.85
2022-09-12T18:24:17.625Z,2.47
2022-09-12T18:26:44.894Z,2.22
2022-09-12T18:29:12.556Z,2.30
2022-09-12T18:31:39.193Z,2.45
2022-09-12T18:34:06.804Z,2.83
2022-09-12T18:36:33.375Z,2.42
2022-09-12T18:39:00.823Z,2.42
2022-09-12T18:41:28.976Z,2.65
2022-09-12T18:43:56.599Z,2.90
2022-09-12T18:46:23.610Z,2.40
2022-09-12T18:48:50.556Z,2.58
2022-09-12T18:51:19.867Z,2.85
2022-09-12T18:53:58.280Z,2.65
2022-09-12T18:56:27.694Z,2.53
2022-09-12T18:58:57.713Z,2.58
2022-09-12T19:01:26.810Z,2.78
2022-09-12T19:03:54.266Z,2.58
2022-09-12T19:06:29.123Z,2.40
2022-09-12T19:08:56.964Z,2.53
2022-09-12T19:11:24.144Z,2.17
2022-09-12T19:13:52.027Z,2.20
2022-09-12T19:16:24.075Z,2.50
2022-09-12T19:18:52.366Z,2.53
2022-09-12T19:21:22.377Z,2.40
2022-09-12T19:23:49.199Z,2.28
2022-09-12T19:26:16.923Z,2.42
2022-09-12T19:28:43.707Z,2.92
2022-09-12T19:31:12.379Z,2.20
2022-09-12T19:33:39.164Z,2.13
2022-09-12T19:36:27.268Z,2.28
2022-09-12T19:38:55.113Z,2.63
2022-09-12T19:41:21.947Z,2.40
2022-09-12T19:43:48.460Z,2.53
2022-09-12T19:46:19.956Z,2.08
2022-09-12T19:48:47.214Z,2.38
2022-09-12T19:51:14.849Z,1.98
2022-09-12T19:53:41.815Z,2.40
2022-09-12T19:56:09.302Z,2.70
2022-09-12T19:58:41.183Z,2.25
2022-09-12T20:01:20.356Z,2.20
2022-09-12T20:03:47.446Z,2.88
2022-09-12T20:06:16.198Z,2.38
2022-09-12T20:08:43.953Z,2.20
2022-09-12T20:11:13.078Z,2.80
2022-09-12T20:13:40.222Z,2.45
2022-09-12T20:16:11.103Z,2.20
2022-09-12T20:18:38.134Z,2.28
2022-09-12T20:21:16.379Z,1.92
2022-09-12T20:23:43.286Z,1.98
2022-09-12T20:26:10.801Z,2.20
2022-09-12T20:28:38.032Z,2.60
2022-09-12T20:31:08.397Z,2.60
2022-09-12T20:33:34.965Z,2.03
2022-09-12T20:36:13.451Z,2.08
2022-09-12T20:38:41.035Z,2.30
2022-09-12T20:41:12.348Z,2.42
2022-09-12T20:46:07.386Z,2.42
2022-09-12T20:48:34.003Z,2.30
2022-09-12T20:51:00.874Z,2.47
2022-09-12T20:53:30.639Z,2.25
2022-09-12T20:56:01.029Z,2.33
2022-09-12T20:58:27.547Z,2.40
2022-09-12T21:00:54.161Z,2.50
2022-09-12T21:03:20.651Z,2.35
2022-09-12T21:05:47.183Z,2.03
2022-09-12T21:08:14.432Z,2.30
2022-09-12T21:10:42.294Z,2.38
2022-09-12T21:13:12.847Z,2.30
2022-09-12T21:15:39.999Z,2.17
2022-09-12T21:18:07.070Z,2.40
2022-09-12T21:20:33.785Z,3.10
2022-09-12T21:23:00.349Z,2.30
2022-09-12T21:25:28.942Z,2.70
2022-09-12T21:27:55.527Z,2.38
2022-09-12T21:30:22.307Z,2.42
2022-09-12T21:32:48.885Z,2.03
2022-09-12T21:35:15.548Z,2.58
2022-09-12T21:37:42.040Z,2.75
2022-09-12T21:40:08.962Z,2.50
2022-09-12T21:42:35.562Z,2.15
2022-09-12T21:45:02.229Z,2.42
2022-09-12T21:47:28.757Z,2.30
2022-09-12T21:49:55.402Z,2.30
2022-09-12T21:52:22.037Z,1.92
2022-09-12T21:54:48.592Z,2.33
2022-09-12T21:57:15.154Z,2.38
2022-09-12T21:59:41.665Z,2.63
2022-09-12T22:02:08.763Z,2.13
2022-09-12T22:04:35.338Z,2.22
2022-09-12T22:07:02.164Z,2.28
2022-09-12T22:09:28.656Z,2.25
2022-09-12T22:11:55.650Z,2.28
2022-09-12T22:14:22.143Z,1.98
2022-09-12T22:16:49.455Z,2.70
2022-09-12T22:19:16.159Z,2.47
2022-09-12T22:22:02.644Z,2.15
2022-09-12T22:24:29.388Z,2.83
2022-09-12T22:26:56.792Z,2.45
2022-09-12T22:29:23.532Z,2.40
2022-09-12T22:31:50.414Z,2.10
2022-09-12T22:34:16.969Z,1.98
2022-09-12T22:36:44.237Z,2.15
2022-09-12T22:39:10.805Z,2.08
2022-09-12T22:41:37.559Z,2.15
2022-09-12T22:44:04.237Z,2.20
2022-09-12T22:46:30.865Z,2.05
2022-09-12T22:48:57.404Z,2.50
2022-09-12T22:51:24.037Z,2.50
2022-09-12T22:53:51.466Z,2.10
2022-09-12T22:56:18.044Z,1.77
2022-09-12T22:58:44.670Z,1.98
2022-09-12T23:01:11.638Z,2.15
2022-09-12T23:03:38.719Z,1.88
2022-09-12T23:06:06.004Z,1.73
2022-09-12T23:08:34.905Z,2.20
2022-09-12T23:11:11.841Z,2.25
2022-09-12T23:13:38.906Z,1.88
2022-09-12T23:16:07.995Z,1.92
2022-09-12T23:18:36.188Z,2.33
2022-09-12T23:21:05.124Z,2.20
2022-09-12T23:23:31.945Z,1.63
2022-09-12T23:26:13.435Z,1.70
2022-09-12T23:28:41.009Z,2.03
2022-09-12T23:31:09.498Z,2.00
2022-09-12T23:33:36.619Z,1.92
2022-09-12T23:36:06.740Z,2.38
2022-09-12T23:38:35.089Z,1.90
2022-09-12T23:41:03.372Z,2.05
2022-09-12T23:43:30.332Z,2.00
2022-09-12T23:45:58.046Z,1.95
2022-09-12T23:48:24.763Z,1.67
2022-09-12T23:50:51.755Z,1.63
2022-09-12T23:53:18.425Z,1.60
2022-09-12T23:55:45.415Z,1.60
2022-09-12T23:58:12.628Z,2.17
